Time;durP1;ratioP1;P1;durP2;ratioP2;P2;SDS_P1;SDS_P2;PMS_P1;PMS_P2;Temp;Humidity;BMP_temperature;BMP_pressure;BME280_temperature;BME280_humidity;BME280_pressure;Samples;Min_cycle;Max_cycle;Signal;HPM_P1;HPM_P2
2021/09/08 00:00:59;;;;;;;0.80;0.40;;;13.20;99.90;;;;;;4922475;29;20510;-72
2021/09/08 00:03:28;;;;;;;0.80;0.50;;;13.10;99.90;;;;;;4926263;29;20468;-72
2021/09/08 00:05:57;;;;;;;0.80;0.40;;;13.20;99.90;;;;;;4926801;29;21010;-74
2021/09/08 00:08:27;;;;;;;0.80;0.40;;;13.20;99.90;;;;;;4926932;29;20452;-71
2021/09/08 00:10:56;;;;;;;0.80;0.40;;;13.10;99.90;;;;;;4944382;29;20424;-72
2021/09/08 00:13:24;;;;;;;0.80;0.50;;;13.10;99.90;;;;;;4927199;29;20538;-73
2021/09/08 00:15:52;;;;;;;0.80;0.40;;;13.10;99.90;;;;;;4926810;29;20414;-75
2021/09/08 00:18:21;;;;;;;0.80;0.50;;;13.20;99.90;;;;;;4919688;29;20459;-75
2021/09/08 00:20:49;;;;;;;0.80;0.40;;;13.20;99.90;;;;;;4917061;29;20527;-73
2021/09/08 00:23:18;;;;;;;0.80;0.40;;;13.10;99.90;;;;;;4934325;29;21014;-71
2021/09/08 00:25:48;;;;;;;0.80;0.43;;;13.10;99.90;;;;;;4934278;29;20962;-74
2021/09/08 00:28:17;;;;;;;0.80;0.40;;;13.10;99.90;;;;;;4917311;29;20452;-75
2021/09/08 00:30:45;;;;;;;0.80;0.40;;;13.00;99.90;;;;;;4917176;29;20459;-74
2021/09/08 00:33:14;;;;;;;0.80;0.40;;;13.00;99.90;;;;;;4934521;29;20536;-72
2021/09/08 00:35:43;;;;;;;0.80;0.50;;;13.00;99.90;;;;;;4934295;29;20435;-74
2021/09/08 00:38:13;;;;;;;0.80;0.40;;;13.00;99.90;;;;;;4917359;29;20420;-74
2021/09/08 00:40:42;;;;;;;0.80;0.40;;;13.00;99.90;;;;;;4916909;29;20446;-74
2021/09/08 00:43:12;;;;;;;0.80;0.40;;;13.00;99.90;;;;;;4917335;29;20510;-73
2021/09/08 00:45:40;;;;;;;0.80;0.40;;;13.00;99.90;;;;;;4934597;29;20436;-72
2021/09/08 00:48:11;;;;;;;0.80;0.40;;;13.00;99.90;;;;;;4917321;29;20407;-74
2021/09/08 00:50:40;;;;;;;0.80;0.40;;;13.00;99.90;;;;;;4917156;29;20452;-75
2021/09/08 00:53:10;;;;;;;0.80;0.50;;;13.00;99.90;;;;;;4932524;29;20580;-73
2021/09/08 00:55:40;;;;;;;0.80;0.50;;;13.10;99.90;;;;;;4916595;29;20452;-75
2021/09/08 00:58:12;;;;;;;0.80;0.40;;;13.10;99.90;;;;;;4934591;29;20425;-74
2021/09/08 01:00:43;;;;;;;0.80;0.40;;;13.10;99.90;;;;;;4934595;29;20468;-74
2021/09/08 01:03:11;;;;;;;0.80;0.40;;;13.00;99.90;;;;;;4917035;29;20470;-74
2021/09/08 01:05:41;;;;;;;0.80;0.50;;;13.00;99.90;;;;;;4934958;29;20460;-71
2021/09/08 01:08:13;;;;;;;0.80;0.40;;;13.10;99.90;;;;;;4933837;29;20939;-71
2021/09/08 01:10:46;;;;;;;0.80;0.40;;;13.10;99.90;;;;;;4933645;29;20432;-73
2021/09/08 01:13:17;;;;;;;0.80;0.50;;;13.20;99.90;;;;;;4916517;29;20466;-73
2021/09/08 01:15:56;;;;;;;0.80;0.50;;;13.20;99.90;;;;;;4933532;29;20432;-71
2021/09/08 01:18:25;;;;;;;0.80;0.40;;;13.20;99.90;;;;;;4916856;29;20433;-74
2021/09/08 01:20:54;;;;;;;0.80;0.40;;;13.10;99.90;;;;;;4916503;29;20503;-74
2021/09/08 01:23:24;;;;;;;0.80;0.50;;;13.00;99.90;;;;;;4933639;29;20892;-74
2021/09/08 01:25:53;;;;;;;0.80;0.40;;;13.00;99.90;;;;;;4933601;29;20435;-73
2021/09/08 01:28:21;;;;;;;0.80;0.40;;;12.90;99.90;;;;;;4917088;29;20437;-71
2021/09/08 01:30:54;;;;;;;0.80;0.40;;;12.80;99.90;;;;;;4937389;29;20433;-75
2021/09/08 01:33:23;;;;;;;0.80;0.40;;;12.70;99.90;;;;;;4937059;29;20547;-74
2021/09/08 01:35:52;;;;;;;0.80;0.40;;;12.60;99.90;;;;;;4936969;29;20421;-74
2021/09/08 01:38:20;;;;;;;0.80;0.40;;;12.70;99.90;;;;;;4937271;29;20840;-74
2021/09/08 01:40:50;;;;;;;0.80;0.50;;;12.70;99.90;;;;;;4919702;29;21018;-74
2021/09/08 01:43:22;;;;;;;0.80;0.40;;;12.60;99.90;;;;;;4919938;29;20467;-74
2021/09/08 01:45:52;;;;;;;0.80;0.40;;;12.50;99.90;;;;;;4919644;29;20468;-74
2021/09/08 01:48:20;;;;;;;0.80;0.40;;;12.60;99.90;;;;;;4919962;29;20536;-72
2021/09/08 01:50:50;;;;;;;0.80;0.40;;;12.60;99.90;;;;;;4919374;29;20517;-73
2021/09/08 01:53:18;;;;;;;0.80;0.40;;;12.50;99.90;;;;;;4919230;29;20515;-73
2021/09/08 01:55:47;;;;;;;0.80;0.40;;;12.50;99.90;;;;;;4919391;29;20444;-74
2021/09/08 01:58:17;;;;;;;0.80;0.40;;;12.60;99.90;;;;;;4936740;29;20440;-73
2021/09/08 02:00:46;;;;;;;0.80;0.40;;;12.60;99.90;;;;;;4919328;29;20925;-70
2021/09/08 02:03:15;;;;;;;0.80;0.40;;;12.50;99.90;;;;;;4919591;29;20510;-73
2021/09/08 02:05:44;;;;;;;0.80;0.40;;;12.50;99.90;;;;;;4919139;29;20822;-74
2021/09/08 02:08:12;;;;;;;0.80;0.40;;;12.50;99.90;;;;;;4919437;29;20444;-72
2021/09/08 02:10:41;;;;;;;0.80;0.40;;;12.50;99.90;;;;;;4936261;29;20429;-74
2021/09/08 02:13:09;;;;;;;0.80;0.40;;;12.40;99.90;;;;;;4918944;29;20460;-74
2021/09/08 02:15:39;;;;;;;0.80;0.40;;;12.50;99.90;;;;;;4919306;29;20895;-74
2021/09/08 02:18:08;;;;;;;0.80;0.47;;;12.50;99.90;;;;;;4919174;29;20821;-74
2021/09/08 02:20:36;;;;;;;0.80;0.50;;;12.50;99.90;;;;;;4919041;29;20473;-73
2021/09/08 02:23:05;;;;;;;0.90;0.70;;;12.50;99.90;;;;;;4918784;29;20456;-74
2021/09/08 02:25:33;;;;;;;0.80;0.50;;;12.60;99.90;;;;;;4919210;29;20536;-73
2021/09/08 02:28:02;;;;;;;0.80;0.50;;;12.60;99.90;;;;;;4919170;29;20437;-73
2021/09/08 02:30:30;;;;;;;0.80;0.40;;;12.70;99.90;;;;;;4919274;29;20429;-74
2021/09/08 02:33:00;;;;;;;0.80;0.47;;;12.60;99.90;;;;;;4936553;29;20451;-73
2021/09/08 02:35:29;;;;;;;0.80;0.50;;;12.60;99.90;;;;;;4918992;29;20504;-73
2021/09/08 02:37:57;;;;;;;0.80;0.40;;;12.50;99.90;;;;;;4920117;29;20492;-75
2021/09/08 02:40:26;;;;;;;0.80;0.40;;;12.50;99.90;;;;;;4936271;29;20834;-74
2021/09/08 02:42:54;;;;;;;0.80;0.40;;;12.50;99.90;;;;;;4918925;29;20538;-73
2021/09/08 02:45:22;;;;;;;0.80;0.50;;;12.40;99.90;;;;;;4918927;29;20487;-73
2021/09/08 02:47:51;;;;;;;0.80;0.40;;;12.40;99.90;;;;;;4936282;29;20431;-70
2021/09/08 02:50:21;;;;;;;0.80;0.50;;;12.40;99.90;;;;;;4919382;29;20856;-73
2021/09/08 02:52:50;;;;;;;0.80;0.40;;;12.40;99.90;;;;;;4918843;29;20468;-73
2021/09/08 02:55:18;;;;;;;0.80;0.40;;;12.50;99.90;;;;;;4936457;29;20464;-74
2021/09/08 02:57:47;;;;;;;0.80;0.40;;;12.40;99.90;;;;;;4918737;29;20453;-70
2021/09/08 03:00:17;;;;;;;0.80;0.40;;;12.50;99.90;;;;;;4918875;29;20472;-73
2021/09/08 03:02:46;;;;;;;0.80;0.50;;;12.50;99.90;;;;;;4918313;29;20470;-74
2021/09/08 03:05:14;;;;;;;0.80;0.40;;;12.60;99.90;;;;;;4918288;29;20826;-73
2021/09/08 03:07:44;;;;;;;0.80;0.40;;;12.60;99.90;;;;;;4918451;23;20542;-75
2021/09/08 03:10:12;;;;;;;0.80;0.50;;;12.60;99.90;;;;;;4898096;29;20502;-75
2021/09/08 03:12:40;;;;;;;0.80;0.40;;;12.60;99.90;;;;;;4898210;29;20434;-76
2021/09/08 03:15:09;;;;;;;0.80;0.40;;;12.60;99.90;;;;;;4898474;29;20960;-75
2021/09/08 03:17:38;;;;;;;0.80;0.40;;;12.60;99.90;;;;;;4897840;29;20446;-75
2021/09/08 03:20:07;;;;;;;0.80;0.50;;;12.50;99.90;;;;;;4897634;29;20445;-75
2021/09/08 03:22:35;;;;;;;0.80;0.40;;;12.40;99.90;;;;;;4897939;29;20467;-75
2021/09/08 03:25:05;;;;;;;0.80;0.40;;;12.40;99.90;;;;;;4897807;29;20445;-75
2021/09/08 03:27:34;;;;;;;0.80;0.40;;;12.40;99.90;;;;;;4897756;29;20442;-76
2021/09/08 03:30:02;;;;;;;0.80;0.40;;;12.40;99.90;;;;;;4897705;29;20486;-75
2021/09/08 03:32:30;;;;;;;0.80;0.40;;;12.40;99.90;;;;;;4897448;29;20485;-75
2021/09/08 03:34:58;;;;;;;0.80;0.40;;;12.40;99.90;;;;;;4897786;29;20466;-75
2021/09/08 03:37:27;;;;;;;0.80;0.40;;;12.50;99.90;;;;;;4897703;29;20446;-75
2021/09/08 03:39:56;;;;;;;0.80;0.40;;;12.50;99.90;;;;;;4897628;29;20467;-75
2021/09/08 03:42:26;;;;;;;0.80;0.40;;;12.50;99.90;;;;;;4897571;29;20478;-75
2021/09/08 03:44:54;;;;;;;0.80;0.50;;;12.40;99.90;;;;;;4897340;29;20462;-75
2021/09/08 03:47:22;;;;;;;0.80;0.40;;;12.30;99.90;;;;;;4897561;29;20421;-76
2021/09/08 03:49:50;;;;;;;0.80;0.40;;;12.30;99.90;;;;;;4897291;29;20957;-75
2021/09/08 03:52:18;;;;;;;0.80;0.40;;;12.30;99.90;;;;;;4898158;29;20431;-75
2021/09/08 03:54:46;;;;;;;0.80;0.40;;;12.30;99.90;;;;;;4898057;29;20427;-75
2021/09/08 03:57:14;;;;;;;0.80;0.40;;;12.30;99.90;;;;;;4898235;29;20482;-75
2021/09/08 03:59:44;;;;;;;0.80;0.40;;;12.20;99.90;;;;;;4898406;29;20426;-75
2021/09/08 04:02:12;;;;;;;0.80;0.40;;;12.20;99.90;;;;;;4898014;29;20526;-76
2021/09/08 04:04:41;;;;;;;0.80;0.40;;;12.20;99.90;;;;;;4897735;29;20404;-74
2021/09/08 04:07:11;;;;;;;0.80;0.40;;;12.30;99.90;;;;;;4897012;29;20525;-74
2021/09/08 04:09:39;;;;;;;0.80;0.40;;;12.40;99.90;;;;;;4897152;29;20514;-75
2021/09/08 04:12:07;;;;;;;0.80;0.40;;;12.30;99.90;;;;;;4897239;29;20438;-75
2021/09/08 04:14:35;;;;;;;0.80;0.40;;;12.30;99.90;;;;;;4880073;29;20502;-75
2021/09/08 04:17:05;;;;;;;0.80;0.40;;;12.30;99.90;;;;;;4897436;29;20507;-75
2021/09/08 04:19:33;;;;;;;0.80;0.40;;;12.20;99.90;;;;;;4897572;29;20490;-75
2021/09/08 04:22:01;;;;;;;0.80;0.50;;;12.20;99.90;;;;;;4898089;29;20508;-75
2021/09/08 04:24:29;;;;;;;0.80;0.40;;;12.20;99.90;;;;;;4898178;29;20520;-75
2021/09/08 04:26:57;;;;;;;0.80;0.40;;;12.20;99.90;;;;;;4900054;29;20461;-73
2021/09/08 04:29:25;;;;;;;0.80;0.40;;;12.20;99.90;;;;;;4901862;29;20426;-74
2021/09/08 04:31:53;;;;;;;0.80;0.40;;;12.20;99.90;;;;;;4902176;29;20435;-73
2021/09/08 04:34:22;;;;;;;0.80;0.40;;;12.20;99.90;;;;;;4903607;29;20408;-74
2021/09/08 04:36:50;;;;;;;0.80;0.50;;;12.10;99.90;;;;;;4900290;29;20502;-75
2021/09/08 04:39:18;;;;;;;0.80;0.50;;;12.20;99.90;;;;;;4897359;29;20433;-75
2021/09/08 04:41:46;;;;;;;1.63;1.07;;;12.20;99.90;;;;;;4897112;29;20880;-75
2021/09/08 04:44:14;;;;;;;0.80;0.50;;;12.20;99.90;;;;;;4896798;29;20715;-75
2021/09/08 04:46:42;;;;;;;0.80;0.50;;;12.20;99.90;;;;;;4896669;29;20514;-75
2021/09/08 04:49:11;;;;;;;0.80;0.50;;;12.30;99.90;;;;;;4896577;29;20450;-75
2021/09/08 04:51:40;;;;;;;0.80;0.50;;;12.30;99.90;;;;;;4896441;29;20422;-75
2021/09/08 04:54:08;;;;;;;0.80;0.40;;;12.40;99.90;;;;;;4879645;29;20438;-75
2021/09/08 04:56:37;;;;;;;0.80;0.40;;;12.40;99.90;;;;;;4896966;29;20510;-75
2021/09/08 04:59:05;;;;;;;0.80;0.40;;;12.40;99.90;;;;;;4896849;29;20405;-74
2021/09/08 05:01:33;;;;;;;0.80;0.50;;;12.50;99.90;;;;;;4897020;29;20557;-74
2021/09/08 05:04:01;;;;;;;0.80;0.50;;;12.70;99.90;;;;;;4900063;29;20439;-75
2021/09/08 05:06:30;;;;;;;0.80;0.50;;;13.20;99.90;;;;;;4900286;29;20528;-75
2021/09/08 05:08:59;;;;;;;0.80;0.40;;;13.60;99.90;;;;;;4900666;29;20490;-74
2021/09/08 05:11:27;;;;;;;0.80;0.50;;;14.00;99.90;;;;;;4900656;29;20847;-76
2021/09/08 05:13:55;;;;;;;0.80;0.50;;;14.10;99.90;;;;;;4900706;29;20434;-75
2021/09/08 05:16:23;;;;;;;0.80;0.40;;;14.00;99.90;;;;;;4900811;29;20933;-75
2021/09/08 05:18:51;;;;;;;0.80;0.40;;;13.80;99.90;;;;;;4900692;29;20654;-75
2021/09/08 05:21:19;;;;;;;0.80;0.50;;;13.70;99.90;;;;;;4901860;29;20832;-73
2021/09/08 05:23:47;;;;;;;0.80;0.40;;;13.60;99.90;;;;;;4904771;29;20434;-74
2021/09/08 05:26:17;;;;;;;0.80;0.50;;;13.70;99.90;;;;;;4904268;29;20571;-74
2021/09/08 05:28:45;;;;;;;0.80;0.40;;;13.70;99.90;;;;;;4905051;29;20482;-73
2021/09/08 05:31:13;;;;;;;0.80;0.40;;;13.70;99.90;;;;;;4909573;29;20429;-74
2021/09/08 05:33:41;;;;;;;0.80;0.40;;;13.70;99.90;;;;;;4909451;29;20917;-76
2021/09/08 05:36:09;;;;;;;0.80;0.40;;;13.70;99.90;;;;;;4908429;29;20430;-76
2021/09/08 05:38:37;;;;;;;0.80;0.40;;;13.80;99.90;;;;;;4908631;29;20437;-75
2021/09/08 05:41:08;;;;;;;2.50;2.30;;;13.90;99.90;;;;;;4908657;29;20426;-75
2021/09/08 05:43:38;;;;;;;0.80;0.40;;;14.10;99.90;;;;;;4905734;29;20469;-74
2021/09/08 05:46:06;;;;;;;0.80;0.40;;;14.20;99.90;;;;;;4918368;29;20853;-75
2021/09/08 05:48:35;;;;;;;0.80;0.40;;;14.30;99.90;;;;;;4918644;29;20445;-74
2021/09/08 05:51:03;;;;;;;0.80;0.40;;;14.40;99.90;;;;;;4918786;29;20447;-74
2021/09/08 05:53:31;;;;;;;0.80;0.40;;;14.60;99.90;;;;;;4916936;29;20516;-75
2021/09/08 05:55:59;;;;;;;0.80;0.40;;;14.60;99.90;;;;;;4907467;29;20494;-74
2021/09/08 05:58:27;;;;;;;0.80;0.40;;;14.80;99.90;;;;;;4908090;29;20518;-75
2021/09/08 06:00:57;;;;;;;0.80;0.40;;;14.90;99.90;;;;;;4910849;29;20549;-74
2021/09/08 06:03:25;;;;;;;0.80;0.50;;;15.10;99.90;;;;;;4903429;29;20517;-75
2021/09/08 06:05:53;;;;;;;0.90;0.67;;;15.20;99.90;;;;;;4899959;29;20435;-75
2021/09/08 06:08:21;;;;;;;0.80;0.40;;;15.40;99.90;;;;;;4906308;29;21008;-75
2021/09/08 06:10:50;;;;;;;0.80;0.40;;;15.50;99.90;;;;;;4909757;29;21009;-74
2021/09/08 06:13:18;;;;;;;0.80;0.40;;;15.60;91.90;;;;;;4911671;29;20846;-76
2021/09/08 06:15:46;;;;;;;0.80;0.40;;;15.80;5.50;;;;;;4916432;29;20441;-74
2021/09/08 06:18:16;;;;;;;0.83;0.40;;;16.00;1.00;;;;;;4912666;29;20428;-76
2021/09/08 06:20:44;;;;;;;0.80;0.40;;;16.20;1.00;;;;;;4905373;29;20408;-75
2021/09/08 06:23:16;;;;;;;0.90;0.40;;;16.40;1.00;;;;;;4918740;29;20858;-76
2021/09/08 06:25:44;;;;;;;0.80;0.40;;;16.70;1.00;;;;;;4917479;29;20429;-75
2021/09/08 06:28:12;;;;;;;0.90;0.40;;;16.90;1.00;;;;;;4918686;29;20420;-74
2021/09/08 06:30:40;;;;;;;0.90;0.40;;;17.10;99.90;;;;;;4901614;29;20446;-75
2021/09/08 06:33:08;;;;;;;0.90;0.40;;;17.20;99.90;;;;;;4901836;29;20475;-75
2021/09/08 06:35:38;;;;;;;0.90;0.50;;;17.40;99.90;;;;;;4918734;29;20516;-76
2021/09/08 06:38:06;;;;;;;0.90;0.40;;;17.50;99.90;;;;;;4918685;29;20445;-76
2021/09/08 06:40:34;;;;;;;0.90;0.40;;;17.70;99.90;;;;;;4918667;29;20410;-75
2021/09/08 06:43:02;;;;;;;0.90;0.40;;;17.80;99.90;;;;;;4918356;29;20450;-76
2021/09/08 06:45:30;;;;;;;0.90;0.40;;;17.90;99.90;;;;;;4918248;29;20456;-75
2021/09/08 06:47:58;;;;;;;0.90;0.40;;;18.00;99.90;;;;;;4918199;29;20450;-75
2021/09/08 06:50:26;;;;;;;0.90;0.40;;;18.10;99.90;;;;;;4917685;29;20404;-75
2021/09/08 06:52:58;;;;;;;0.90;0.40;;;18.30;99.90;;;;;;4918071;29;20844;-76
2021/09/08 06:55:26;;;;;;;0.90;0.40;;;18.40;99.90;;;;;;4917869;29;20448;-74
2021/09/08 06:57:54;;;;;;;0.90;0.40;;;18.60;99.90;;;;;;4918078;29;20450;-75
2021/09/08 07:00:22;;;;;;;0.90;0.40;;;18.70;99.90;;;;;;4917948;29;20412;-75
2021/09/08 07:02:50;;;;;;;0.90;0.40;;;18.80;99.90;;;;;;4917731;29;20436;-76
2021/09/08 07:05:21;;;;;;;0.90;0.40;;;18.90;99.90;;;;;;4917617;29;20410;-75
2021/09/08 07:07:49;;;;;;;0.90;0.40;;;19.00;99.90;;;;;;4917745;29;20444;-75
2021/09/08 07:10:19;;;;;;;0.90;0.40;;;19.20;99.90;;;;;;4917985;29;20452;-75
2021/09/08 07:12:47;;;;;;;0.90;0.40;;;19.30;99.90;;;;;;4918318;29;20447;-76
2021/09/08 07:15:15;;;;;;;0.90;0.40;;;19.40;99.90;;;;;;4917197;29;20821;-76
2021/09/08 07:17:43;;;;;;;0.90;0.40;;;19.40;99.90;;;;;;4917518;29;20435;-75
2021/09/08 07:20:11;;;;;;;0.90;0.50;;;19.50;99.90;;;;;;4917696;29;20886;-75
2021/09/08 07:22:39;;;;;;;0.90;0.40;;;19.60;99.90;;;;;;4917556;29;20475;-76
2021/09/08 07:25:08;;;;;;;0.90;0.40;;;19.70;99.90;;;;;;4917285;29;20404;-76
2021/09/08 07:27:38;;;;;;;0.90;0.40;;;19.70;99.90;;;;;;4916574;29;20560;-77
2021/09/08 07:30:08;;;;;;;0.90;0.40;;;19.80;99.90;;;;;;4917113;29;20404;-76
2021/09/08 07:32:37;;;;;;;0.90;0.40;;;19.90;99.90;;;;;;4917033;29;20448;-75
2021/09/08 07:35:06;;;;;;;0.90;0.40;;;19.90;99.90;;;;;;4916793;29;20438;-75
2021/09/08 07:37:37;;;;;;;0.90;0.40;;;20.00;99.90;;;;;;4916941;29;20453;-75
2021/09/08 07:40:07;;;;;;;0.90;0.40;;;19.90;99.90;;;;;;4916673;29;20477;-76
2021/09/08 07:42:35;;;;;;;0.90;0.40;;;20.00;99.90;;;;;;4916235;29;20479;-76
2021/09/08 07:45:06;;;;;;;0.90;0.40;;;20.20;99.90;;;;;;4916307;29;20404;-75
2021/09/08 07:47:35;;;;;;;0.90;0.40;;;20.30;99.90;;;;;;4917065;29;20835;-75
2021/09/08 07:50:04;;;;;;;0.90;0.40;;;20.30;99.90;;;;;;4916547;29;20498;-75
2021/09/08 07:52:32;;;;;;;0.90;0.40;;;20.40;99.90;;;;;;4916290;29;20483;-76
2021/09/08 07:55:01;;;;;;;0.90;0.50;;;20.40;99.90;;;;;;4916066;29;20507;-76
2021/09/08 07:57:29;;;;;;;0.90;0.40;;;20.50;99.90;;;;;;4916295;29;20424;-76
2021/09/08 07:59:57;;;;;;;0.90;0.40;;;20.60;99.90;;;;;;4917158;29;20512;-75
2021/09/08 08:02:27;;;;;;;0.90;0.40;;;20.80;99.90;;;;;;4916488;29;20411;-75
2021/09/08 08:04:55;;;;;;;0.90;0.40;;;20.80;99.90;;;;;;4917432;29;20404;-75
2021/09/08 08:07:23;;;;;;;0.90;0.40;;;20.90;99.90;;;;;;4916162;29;20447;-75
2021/09/08 08:09:51;;;;;;;0.90;0.40;;;20.90;99.10;;;;;;4916247;29;20888;-75
2021/09/08 08:12:19;;;;;;;0.90;0.40;;;21.00;98.10;;;;;;4916050;29;20753;-75
2021/09/08 08:14:47;;;;;;;0.90;0.40;;;21.10;96.50;;;;;;4916228;29;20757;-75
2021/09/08 08:17:15;;;;;;;0.90;0.40;;;21.30;95.10;;;;;;4916192;29;20516;-75
2021/09/08 08:19:47;;;;;;;0.90;0.40;;;21.40;93.70;;;;;;4916184;29;20818;-75
2021/09/08 08:22:15;;;;;;;0.90;0.40;;;21.50;91.50;;;;;;4916417;29;20797;-75
2021/09/08 08:24:43;;;;;;;0.90;0.40;;;21.60;91.20;;;;;;4915711;29;20456;-76
2021/09/08 08:27:11;;;;;;;0.90;0.40;;;21.70;87.30;;;;;;4916120;29;20947;-76
2021/09/08 08:29:39;;;;;;;0.90;0.40;;;21.80;85.90;;;;;;4915941;29;20428;-75
2021/09/08 08:32:08;;;;;;;0.90;0.40;;;21.80;78.90;;;;;;4917263;29;20396;-75
2021/09/08 08:34:36;;;;;;;0.90;0.40;;;21.80;77.70;;;;;;4916522;29;20429;-75
2021/09/08 08:37:06;;;;;;;0.90;0.40;;;21.80;78.30;;;;;;4915717;29;20479;-75
2021/09/08 08:39:34;;;;;;;0.90;0.40;;;21.80;73.70;;;;;;4917269;29;20704;-74
2021/09/08 08:42:02;;;;;;;0.90;0.40;;;21.90;73.00;;;;;;4916868;29;20414;-77
2021/09/08 08:44:30;;;;;;;0.90;0.40;;;21.90;69.50;;;;;;4915882;29;20447;-74
2021/09/08 08:47:00;;;;;;;0.90;0.40;;;21.90;70.50;;;;;;4915912;29;20424;-75
2021/09/08 08:49:29;;;;;;;0.90;0.40;;;22.00;70.60;;;;;;4916282;29;20799;-75
2021/09/08 08:51:57;;;;;;;0.90;0.40;;;22.10;68.00;;;;;;4917997;29;20400;-75
2021/09/08 08:54:27;;;;;;;0.90;0.40;;;22.20;65.50;;;;;;4921562;29;20454;-74
2021/09/08 08:56:55;;;;;;;0.90;0.40;;;22.30;66.10;;;;;;4904034;29;20475;-75
2021/09/08 08:59:23;;;;;;;0.90;0.40;;;22.50;64.20;;;;;;4921167;29;20842;-76
2021/09/08 09:01:51;;;;;;;0.90;0.40;;;22.60;60.60;;;;;;4919922;29;20413;-75
2021/09/08 09:04:19;;;;;;;0.90;0.40;;;22.50;57.80;;;;;;4915618;29;20473;-75
2021/09/08 09:06:49;;;;;;;0.90;0.40;;;22.50;57.90;;;;;;4939477;23;20496;-75
2021/09/08 09:09:19;;;;;;;0.90;0.40;;;22.50;56.70;;;;;;4904646;29;20433;-75
2021/09/08 09:11:50;;;;;;;0.90;0.40;;;22.60;52.40;;;;;;4896880;29;20416;-74
2021/09/08 09:14:19;;;;;;;0.90;0.40;;;22.60;52.10;;;;;;4896813;29;20415;-76
2021/09/08 09:16:47;;;;;;;0.90;0.40;;;22.70;52.00;;;;;;4896953;29;20460;-76
2021/09/08 09:19:15;;;;;;;0.90;0.40;;;22.80;50.00;;;;;;4896926;29;20524;-76
2021/09/08 09:21:44;;;;;;;0.90;0.40;;;22.90;56.20;;;;;;4897158;29;20425;-75
2021/09/08 09:24:11;;;;;;;0.90;0.40;;;23.00;45.80;;;;;;4898439;29;20481;-75
2021/09/08 09:26:42;;;;;;;0.90;0.40;;;23.20;44.40;;;;;;4900441;29;20434;-74
2021/09/08 09:29:13;;;;;;;0.90;0.40;;;23.30;43.60;;;;;;4881493;29;20970;-74
2021/09/08 09:31:52;;;;;;;0.90;0.40;;;23.30;40.20;;;;;;4897347;29;20422;-74
2021/09/08 09:34:21;;;;;;;0.90;0.40;;;23.20;38.80;;;;;;4881778;29;20973;-74
2021/09/08 09:36:53;;;;;;;0.90;0.40;;;22.90;36.50;;;;;;4881205;29;20424;-75
2021/09/08 09:39:21;;;;;;;0.90;0.40;;;23.00;38.20;;;;;;4897807;29;20429;-74
2021/09/08 09:41:50;;;;;;;0.90;0.40;;;23.10;35.90;;;;;;4899194;29;20414;-74
2021/09/08 09:44:19;;;;;;;0.90;0.40;;;23.30;34.30;;;;;;4898118;29;20474;-74
2021/09/08 09:46:47;;;;;;;0.90;0.40;;;23.40;36.10;;;;;;4898520;29;20808;-74
2021/09/08 09:49:16;;;;;;;0.90;0.40;;;23.30;30.30;;;;;;4897239;29;20434;-75
2021/09/08 09:51:44;;;;;;;0.90;0.40;;;23.40;30.10;;;;;;4900419;29;20861;-74
2021/09/08 09:54:15;;;;;;;0.90;0.40;;;23.50;29.60;;;;;;4884419;29;20809;-74
2021/09/08 09:56:43;;;;;;;0.90;0.40;;;23.50;27.70;;;;;;4899797;29;20494;-74
2021/09/08 09:59:11;;;;;;;0.90;0.40;;;23.40;26.40;;;;;;4899952;29;20845;-75
2021/09/08 10:01:41;;;;;;;0.90;0.40;;;23.60;26.40;;;;;;4883161;29;20825;-74
2021/09/08 10:04:11;;;;;;;0.90;0.40;;;23.70;25.80;;;;;;4901658;29;20458;-75
2021/09/08 10:06:41;;;;;;;0.90;0.40;;;23.80;24.80;;;;;;4901505;29;20414;-76
2021/09/08 10:09:13;;;;;;;0.90;0.40;;;23.80;23.40;;;;;;4883572;29;20510;-75
2021/09/08 10:11:45;;;;;;;0.90;0.40;;;23.70;22.80;;;;;;4899717;29;20454;-74
2021/09/08 10:14:16;;;;;;;0.90;0.40;;;23.70;22.60;;;;;;4900248;29;20415;-75
2021/09/08 10:16:49;;;;;;;0.90;0.40;;;23.80;22.70;;;;;;4900611;29;20414;-76
2021/09/08 10:19:18;;;;;;;0.90;0.40;;;24.00;21.60;;;;;;4883102;29;20438;-75
2021/09/08 10:21:47;;;;;;;0.90;0.40;;;24.10;21.90;;;;;;4900023;29;20419;-77
2021/09/08 10:24:18;;;;;;;0.90;0.40;;;24.20;21.00;;;;;;4882831;29;20452;-75
2021/09/08 10:26:47;;;;;;;0.90;0.40;;;24.20;19.70;;;;;;4899485;29;20414;-74
2021/09/08 10:29:15;;;;;;;0.90;0.40;;;24.10;18.30;;;;;;4883802;29;20525;-76
2021/09/08 10:31:48;;;;;;;0.90;0.40;;;23.90;17.60;;;;;;4899756;29;20470;-75
2021/09/08 10:34:18;;;;;;;0.90;0.40;;;23.80;17.30;;;;;;4883029;29;20918;-74
2021/09/08 10:36:47;;;;;;;0.90;0.40;;;23.80;17.20;;;;;;4900704;29;20802;-74
2021/09/08 10:39:17;;;;;;;0.90;0.40;;;23.80;17.00;;;;;;4900737;29;20830;-74
2021/09/08 10:41:47;;;;;;;0.90;0.40;;;23.80;16.60;;;;;;4900578;29;20415;-76
2021/09/08 10:44:17;;;;;;;0.90;0.40;;;24.00;17.10;;;;;;4902869;29;20436;-76
2021/09/08 10:46:54;;;;;;;0.90;0.40;;;24.10;17.50;;;;;;4903052;29;20435;-76
2021/09/08 10:49:51;;;;;;;0.90;0.40;;;24.20;17.00;;;;;;4906634;29;20423;-75
2021/09/08 10:52:45;;;;;;;0.90;0.40;;;24.20;15.00;;;;;;4914906;29;20450;-76
2021/09/08 10:55:22;;;;;;;0.90;0.40;;;24.20;15.90;;;;;;4918812;29;20403;-73
2021/09/08 10:57:59;;;;;;;0.90;0.40;;;24.40;14.80;;;;;;4913795;29;20457;-75
2021/09/08 11:00:38;;;;;;;0.90;0.40;;;24.50;13.30;;;;;;4913639;29;20414;-75
2021/09/08 11:03:24;;;;;;;0.90;0.40;;;24.50;13.20;;;;;;4916905;29;20414;-77
2021/09/08 11:05:56;;;;;;;0.90;0.40;;;24.40;12.70;;;;;;4906774;29;20473;-77
2021/09/08 11:08:27;;;;;;;0.90;0.40;;;24.50;12.00;;;;;;4923092;29;20453;-75
2021/09/08 11:11:09;;;;;;;0.90;0.40;;;24.50;11.50;;;;;;4922660;29;20423;-75
2021/09/08 11:13:38;;;;;;;0.90;0.40;;;24.70;9.90;;;;;;4910801;29;20512;-76
2021/09/08 11:16:17;;;;;;;0.90;0.40;;;24.70;10.00;;;;;;4899288;29;20536;-75
2021/09/08 11:18:45;;;;;;;0.90;0.40;;;24.70;9.40;;;;;;4898965;29;20485;-76
2021/09/08 11:21:16;;;;;;;1.00;0.40;;;24.80;9.10;;;;;;4899266;29;20438;-75
2021/09/08 11:23:47;;;;;;;0.90;0.40;;;24.70;8.70;;;;;;4898870;29;20471;-74
2021/09/08 11:26:15;;;;;;;0.90;0.40;;;24.80;8.80;;;;;;4898465;29;20477;-74
2021/09/08 11:28:43;;;;;;;0.90;0.40;;;24.80;7.90;;;;;;4898373;29;20442;-74
2021/09/08 11:31:16;;;;;;;0.90;0.40;;;24.80;8.40;;;;;;4881818;29;20604;-75
2021/09/08 11:33:44;;;;;;;0.90;0.40;;;24.90;6.90;;;;;;4899264;29;20789;-75
2021/09/08 11:36:16;;;;;;;0.90;0.40;;;25.00;5.50;;;;;;4898967;29;20418;-75
2021/09/08 11:38:47;;;;;;;0.90;0.40;;;25.20;5.40;;;;;;4901938;29;20822;-75
2021/09/08 11:41:17;;;;;;;0.90;0.40;;;25.30;3.90;;;;;;4882818;29;20450;-74
2021/09/08 11:43:49;;;;;;;0.93;0.40;;;25.40;2.10;;;;;;4881944;29;20879;-74
2021/09/08 11:46:19;;;;;;;0.90;0.40;;;25.40;1.00;;;;;;4898334;29;20469;-75
2021/09/08 11:48:49;;;;;;;0.90;0.40;;;25.40;1.00;;;;;;4898214;29;20562;-75
2021/09/08 11:51:20;;;;;;;0.90;0.40;;;25.40;1.00;;;;;;4898011;29;20445;-74
2021/09/08 11:53:49;;;;;;;0.90;0.40;;;25.40;1.00;;;;;;4898312;29;20503;-74
2021/09/08 11:56:19;;;;;;;1.00;0.40;;;25.40;1.00;;;;;;4881454;29;20477;-75
2021/09/08 11:58:52;;;;;;;1.00;0.40;;;25.20;1.00;;;;;;4898011;29;20457;-74
2021/09/08 12:01:20;;;;;;;0.97;0.40;;;25.10;1.00;;;;;;4898412;29;20837;-76
2021/09/08 12:03:53;;;;;;;2.03;1.33;;;25.00;1.00;;;;;;4881580;29;20514;-75
2021/09/08 12:06:25;;;;;;;0.90;0.40;;;24.70;1.00;;;;;;4881363;29;20471;-74
2021/09/08 12:08:56;;;;;;;1.00;0.40;;;24.80;1.00;;;;;;4897558;29;20549;-75
2021/09/08 12:11:36;;;;;;;0.90;0.40;;;24.70;1.00;;;;;;4897867;29;20418;-75
2021/09/08 12:14:25;;;;;;;0.90;0.40;;;24.80;1.00;;;;;;4897452;29;20479;-75
2021/09/08 12:16:55;;;;;;;0.90;0.40;;;24.90;1.00;;;;;;4897779;29;20422;-75
2021/09/08 12:19:30;;;;;;;0.90;0.40;;;25.00;1.00;;;;;;4897919;29;20432;-76
2021/09/08 12:22:08;;;;;;;1.00;0.40;;;25.00;1.00;;;;;;4897806;29;20908;-75
2021/09/08 12:24:41;;;;;;;0.90;0.40;;;25.10;1.00;;;;;;4897912;29;20981;-75
2021/09/08 12:27:30;;;;;;;0.93;0.40;;;25.20;1.00;;;;;;4898051;29;20481;-75
2021/09/08 12:30:01;;;;;;;0.90;0.40;;;25.40;1.00;;;;;;4897923;29;20418;-75
2021/09/08 12:32:50;;;;;;;1.00;0.40;;;25.40;1.00;;;;;;4880566;29;20442;-76
2021/09/08 12:35:40;;;;;;;1.00;0.40;;;25.30;1.00;;;;;;4897393;29;20823;-74
2021/09/08 12:38:40;;;;;;;1.00;0.40;;;25.10;1.00;;;;;;4897353;29;20850;-75
2021/09/08 12:41:12;;;;;;;0.90;0.40;;;25.10;1.00;;;;;;4849532;29;20449;-75
2021/09/08 12:43:42;;;;;;;0.97;0.40;;;25.10;1.00;;;;;;4880531;29;20490;-75
2021/09/08 12:46:10;;;;;;;1.00;0.40;;;25.10;1.00;;;;;;4897630;29;20873;-76
2021/09/08 12:48:39;;;;;;;0.93;0.40;;;25.10;1.00;;;;;;4897536;29;20481;-75
2021/09/08 12:51:08;;;;;;;0.90;0.40;;;25.20;1.00;;;;;;4898146;29;20516;-74
2021/09/08 12:53:36;;;;;;;0.90;0.40;;;25.30;1.00;;;;;;4898445;29;20409;-75
2021/09/08 12:56:13;;;;;;;1.00;0.40;;;25.30;1.00;;;;;;4898346;29;20397;-76
2021/09/08 12:58:41;;;;;;;0.93;0.40;;;25.40;1.00;;;;;;4898333;29;20442;-75
2021/09/08 13:01:09;;;;;;;0.90;0.40;;;25.50;1.00;;;;;;4898936;29;20465;-75